createdAt,value
2024-01-16T00:00:00.664Z,22.6
2024-01-16T00:10:00.495Z,22.6
2024-01-16T00:20:01.094Z,25.1
2024-01-16T00:30:02.582Z,25.7
2024-01-16T00:40:00.664Z,25.7
2024-01-16T00:50:00.697Z,26.8
2024-01-16T01:00:00.527Z,29.9
2024-01-16T01:10:00.488Z,29.9
2024-01-16T01:20:00.831Z,31.7
2024-01-16T01:30:01.379Z,30.0
2024-01-16T01:40:00.509Z,30.0
2024-01-16T01:50:01.590Z,28.7
2024-01-16T02:00:00.969Z,27.9
2024-01-16T02:10:00.488Z,27.9
2024-01-16T02:20:00.848Z,30.5
2024-01-16T02:30:00.845Z,31.4
2024-01-16T02:40:00.494Z,31.4
2024-01-16T02:50:00.475Z,31.8
2024-01-16T03:00:00.800Z,30.9
2024-01-16T03:10:00.505Z,30.9
2024-01-16T03:20:00.497Z,30.7
2024-01-16T03:30:01.734Z,29.3
2024-01-16T03:40:02.602Z,29.3
2024-01-16T03:50:00.519Z,26.3
2024-01-16T04:00:01.152Z,24.3
2024-01-16T04:10:00.804Z,24.3
2024-01-16T04:20:00.528Z,24.4
2024-01-16T04:30:00.548Z,29.6
2024-01-16T04:40:01.157Z,29.6
2024-01-16T04:50:00.546Z,31.7
2024-01-16T05:00:02.205Z,30.9
2024-01-16T05:10:01.771Z,30.9
2024-01-16T05:20:01.725Z,30.2
2024-01-16T05:30:00.718Z,28.4
2024-01-16T05:40:01.355Z,28.4
2024-01-16T05:50:00.863Z,26.6
2024-01-16T06:00:00.671Z,26.7
2024-01-16T06:10:03.568Z,26.7
2024-01-16T06:20:00.622Z,25.8
2024-01-16T06:30:00.610Z,25.0
2024-01-16T06:40:00.848Z,25.0
2024-01-16T06:50:00.658Z,23.9
2024-01-16T07:00:02.661Z,23.4
2024-01-16T07:10:02.631Z,23.4
2024-01-16T07:20:00.631Z,22.4
2024-01-16T07:30:00.916Z,22.8
2024-01-16T07:40:00.497Z,22.8
2024-01-16T07:50:00.569Z,22.4
2024-01-16T08:00:00.608Z,22.4
2024-01-16T08:10:00.949Z,22.4
2024-01-16T08:20:00.493Z,22.8
2024-01-16T08:30:02.299Z,22.9
2024-01-16T08:40:00.891Z,22.9
2024-01-16T08:50:01.518Z,21.1
2024-01-16T09:00:00.690Z,22.2
2024-01-16T09:10:03.012Z,22.2
2024-01-16T09:20:02.701Z,21.4
2024-01-16T09:30:00.579Z,21.8
2024-01-16T09:40:00.557Z,21.8
2024-01-16T09:50:01.722Z,21.7
2024-01-16T10:00:03.523Z,22.2
2024-01-16T10:10:00.736Z,22.2
2024-01-16T10:20:00.934Z,22.2
2024-01-16T10:30:01.121Z,21.4
2024-01-16T10:40:00.553Z,21.4
2024-01-16T10:50:00.890Z,22.9
2024-01-16T11:00:03.897Z,22.1
2024-01-16T11:10:01.150Z,22.1
2024-01-16T11:20:13.773Z,21.9
2024-01-16T11:30:00.766Z,22.3
2024-01-16T11:40:30.822Z,22.3
2024-01-16T11:50:08.981Z,22.2
2024-01-16T12:00:03.483Z,22.1
2024-01-16T12:10:00.520Z,22.1
2024-01-16T12:20:00.713Z,22.0
2024-01-16T12:30:10.221Z,23.3
2024-01-16T12:40:00.981Z,23.3
2024-01-16T12:50:02.298Z,22.1
2024-01-16T13:00:00.654Z,22.8
2024-01-16T13:10:10.396Z,22.8
2024-01-16T13:20:01.638Z,22.4
2024-01-16T13:30:00.845Z,21.3
2024-01-16T13:40:00.690Z,21.3
2024-01-16T13:50:00.585Z,21.6
2024-01-16T14:00:01.502Z,20.8
2024-01-16T14:10:00.873Z,20.8
2024-01-16T14:20:00.551Z,21.3
2024-01-16T14:30:01.840Z,20.7
2024-01-16T14:40:01.102Z,20.7
2024-01-16T14:50:00.497Z,20.7
2024-01-16T15:00:00.765Z,21.0
2024-01-16T15:10:03.195Z,21.0
2024-01-16T15:20:00.707Z,20.9
2024-01-16T15:30:00.975Z,20.6
2024-01-16T15:40:00.640Z,20.6
2024-01-16T15:50:00.624Z,20.9
2024-01-16T16:00:02.829Z,20.4
2024-01-16T16:10:00.498Z,20.4
2024-01-16T16:20:01.128Z,19.8
2024-01-16T16:30:00.833Z,20.8
2024-01-16T16:40:02.492Z,20.8
2024-01-16T16:50:02.785Z,21.2
2024-01-16T17:00:01.191Z,20.9
2024-01-16T17:10:00.523Z,20.9
2024-01-16T17:20:02.925Z,22.2
2024-01-16T17:30:00.919Z,20.9
2024-01-16T17:40:01.288Z,20.9
2024-01-16T17:50:00.559Z,21.7
2024-01-16T18:00:01.228Z,21.7
2024-01-16T18:10:02.156Z,21.7
2024-01-16T18:20:00.489Z,21.6
2024-01-16T18:30:03.395Z,23.5
2024-01-16T18:40:00.666Z,23.5
2024-01-16T18:50:00.722Z,22.8
2024-01-16T19:00:00.701Z,22.9
2024-01-16T19:10:00.682Z,22.9
2024-01-16T19:20:00.987Z,23.1
2024-01-16T19:30:01.262Z,23.2
2024-01-16T19:40:01.137Z,23.2
2024-01-16T19:50:01.274Z,23.1
2024-01-16T20:00:00.759Z,22.3
2024-01-16T20:10:00.524Z,22.3
2024-01-16T20:20:00.869Z,23.7
2024-01-16T20:30:00.929Z,22.1
2024-01-16T20:40:00.672Z,22.1
2024-01-16T20:50:00.870Z,21.3
2024-01-16T21:00:03.070Z,22.3
2024-01-16T21:10:00.688Z,22.3
2024-01-16T21:20:02.890Z,22.1
2024-01-16T21:30:01.021Z,22.9
2024-01-16T21:40:01.011Z,22.9
2024-01-16T21:50:06.422Z,22.0
2024-01-16T22:00:00.787Z,20.8
2024-01-16T22:10:00.710Z,20.8
2024-01-16T22:20:00.747Z,22.8
2024-01-16T22:30:00.790Z,22.5
2024-01-16T22:40:00.540Z,22.5
2024-01-16T22:50:03.589Z,23.6
2024-01-16T23:00:01.026Z,22.9
2024-01-16T23:10:02.475Z,23.1
2024-01-16T23:20:00.729Z,23.1
2024-01-16T23:30:00.863Z,24.6
2024-01-16T23:40:02.847Z,23.0
2024-01-16T23:50:00.795Z,23.0
